sensor_id;sensor_type;location;lat;lon;timestamp;pressure;altitude;pressure_sealevel;temperature;humidity
40788;BME280;26497;52.494;7.546;2023-11-19T00:01:11;100087.19;;;14.89;80.93
40788;BME280;26497;52.494;7.546;2023-11-19T00:03:38;100077.97;;;15.02;80.76
40788;BME280;26497;52.494;7.546;2023-11-19T00:06:06;100079.63;;;15.07;80.67
40788;BME280;26497;52.494;7.546;2023-11-19T00:08:34;100072.41;;;15.12;80.36
40788;BME280;26497;52.494;7.546;2023-11-19T00:11:01;100077.47;;;15.19;80.30
40788;BME280;26497;52.494;7.546;2023-11-19T00:13:28;100071.16;;;15.24;80.12
40788;BME280;26497;52.494;7.546;2023-11-19T00:15:55;100056.72;;;15.02;81.28
40788;BME280;26497;52.494;7.546;2023-11-19T00:18:23;100065.38;;;15.09;81.06
40788;BME280;26497;52.494;7.546;2023-11-19T00:20:50;100058.44;;;15.35;80.17
40788;BME280;26497;52.494;7.546;2023-11-19T00:23:17;100056.19;;;15.51;79.09
40788;BME280;26497;52.494;7.546;2023-11-19T00:25:45;100050.19;;;15.44;79.93
40788;BME280;26497;52.494;7.546;2023-11-19T00:28:13;100051.75;;;15.52;79.59
40788;BME280;26497;52.494;7.546;2023-11-19T00:30:40;100048.13;;;15.54;79.96
40788;BME280;26497;52.494;7.546;2023-11-19T00:33:07;100033.06;;;15.55;79.91
40788;BME280;26497;52.494;7.546;2023-11-19T00:35:34;100031.44;;;15.49;80.62
40788;BME280;26497;52.494;7.546;2023-11-19T00:38:01;100026.66;;;15.60;79.95
40788;BME280;26497;52.494;7.546;2023-11-19T00:40:28;100035.75;;;15.53;80.70
40788;BME280;26497;52.494;7.546;2023-11-19T00:42:57;100025.22;;;15.50;81.53
40788;BME280;26497;52.494;7.546;2023-11-19T00:45:24;100027.03;;;15.48;81.70
40788;BME280;26497;52.494;7.546;2023-11-19T00:47:50;100024.56;;;15.42;82.30
40788;BME280;26497;52.494;7.546;2023-11-19T00:50:18;100019.41;;;15.66;81.41
40788;BME280;26497;52.494;7.546;2023-11-19T00:52:45;100024.06;;;15.59;82.11
40788;BME280;26497;52.494;7.546;2023-11-19T00:55:12;100024.63;;;15.69;81.96
40788;BME280;26497;52.494;7.546;2023-11-19T01:00:13;100015.84;;;15.67;82.34
40788;BME280;26497;52.494;7.546;2023-11-19T01:02:44;100002.03;;;15.55;83.23
40788;BME280;26497;52.494;7.546;2023-11-19T01:05:11;100005.28;;;15.65;83.23
40788;BME280;26497;52.494;7.546;2023-11-19T01:07:40;99995.47;;;15.67;83.26
40788;BME280;26497;52.494;7.546;2023-11-19T01:10:07;99991.47;;;15.52;84.43
40788;BME280;26497;52.494;7.546;2023-11-19T01:12:34;99989.97;;;15.72;83.27
40788;BME280;26497;52.494;7.546;2023-11-19T01:15:01;99987.53;;;15.66;83.40
40788;BME280;26497;52.494;7.546;2023-11-19T01:17:29;99977.50;;;15.74;83.58
40788;BME280;26497;52.494;7.546;2023-11-19T01:19:57;100004.19;;;15.99;82.65
40788;BME280;26497;52.494;7.546;2023-11-19T01:22:24;99988.75;;;15.82;83.29
40788;BME280;26497;52.494;7.546;2023-11-19T01:24:51;99973.28;;;15.68;84.05
40788;BME280;26497;52.494;7.546;2023-11-19T01:27:20;99982.66;;;16.07;82.46
40788;BME280;26497;52.494;7.546;2023-11-19T01:29:46;99977.16;;;16.12;81.81
40788;BME280;26497;52.494;7.546;2023-11-19T01:32:13;99974.06;;;15.99;82.57
40788;BME280;26497;52.494;7.546;2023-11-19T01:34:42;99973.13;;;15.73;84.45
40788;BME280;26497;52.494;7.546;2023-11-19T01:37:09;99965.06;;;16.03;83.37
40788;BME280;26497;52.494;7.546;2023-11-19T01:39:37;99962.19;;;16.09;83.22
40788;BME280;26497;52.494;7.546;2023-11-19T01:42:05;99969.22;;;16.37;81.61
40788;BME280;26497;52.494;7.546;2023-11-19T01:44:32;99968.44;;;16.33;81.51
40788;BME280;26497;52.494;7.546;2023-11-19T01:46:59;99968.97;;;16.18;82.34
40788;BME280;26497;52.494;7.546;2023-11-19T01:49:27;99973.47;;;16.16;82.64
40788;BME280;26497;52.494;7.546;2023-11-19T01:51:57;99969.31;;;16.34;81.65
40788;BME280;26497;52.494;7.546;2023-11-19T01:54:25;99956.84;;;16.36;81.77
40788;BME280;26497;52.494;7.546;2023-11-19T01:56:53;99935.00;;;16.26;81.90
40788;BME280;26497;52.494;7.546;2023-11-19T01:59:23;99924.75;;;15.90;83.88
40788;BME280;26497;52.494;7.546;2023-11-19T02:01:53;99934.56;;;16.13;83.41
40788;BME280;26497;52.494;7.546;2023-11-19T02:04:21;99946.94;;;16.14;82.99
40788;BME280;26497;52.494;7.546;2023-11-19T02:06:49;99939.19;;;16.08;83.67
40788;BME280;26497;52.494;7.546;2023-11-19T02:09:19;99956.56;;;16.18;84.01
40788;BME280;26497;52.494;7.546;2023-11-19T02:11:47;99951.03;;;16.25;83.58
40788;BME280;26497;52.494;7.546;2023-11-19T02:14:17;99944.78;;;16.26;83.61
40788;BME280;26497;52.494;7.546;2023-11-19T02:16:45;99949.81;;;16.33;84.01
40788;BME280;26497;52.494;7.546;2023-11-19T02:19:13;99956.72;;;16.39;83.59
40788;BME280;26497;52.494;7.546;2023-11-19T02:21:39;99939.72;;;16.67;82.29
40788;BME280;26497;52.494;7.546;2023-11-19T02:24:10;99935.44;;;16.63;82.15
40788;BME280;26497;52.494;7.546;2023-11-19T02:26:47;99937.97;;;16.66;81.89
40788;BME280;26497;52.494;7.546;2023-11-19T02:29:23;99928.34;;;16.87;80.70
40788;BME280;26497;52.494;7.546;2023-11-19T02:31:50;99933.25;;;16.74;81.30
40788;BME280;26497;52.494;7.546;2023-11-19T02:34:17;99937.19;;;16.88;80.97
40788;BME280;26497;52.494;7.546;2023-11-19T02:36:44;99936.22;;;16.90;80.92
40788;BME280;26497;52.494;7.546;2023-11-19T02:39:13;99932.41;;;16.98;80.67
40788;BME280;26497;52.494;7.546;2023-11-19T02:41:40;99933.97;;;17.03;80.44
40788;BME280;26497;52.494;7.546;2023-11-19T02:44:07;99935.00;;;16.99;80.26
40788;BME280;26497;52.494;7.546;2023-11-19T02:46:35;99924.56;;;16.93;80.93
40788;BME280;26497;52.494;7.546;2023-11-19T02:49:02;99922.63;;;16.98;80.78
40788;BME280;26497;52.494;7.546;2023-11-19T02:51:29;99915.84;;;16.89;81.15
40788;BME280;26497;52.494;7.546;2023-11-19T02:53:57;99916.69;;;16.90;81.48
40788;BME280;26497;52.494;7.546;2023-11-19T02:56:23;99916.31;;;17.01;80.51
40788;BME280;26497;52.494;7.546;2023-11-19T02:58:52;99918.84;;;16.80;82.15
40788;BME280;26497;52.494;7.546;2023-11-19T03:01:23;99926.97;;;17.01;81.26
40788;BME280;26497;52.494;7.546;2023-11-19T03:04:02;99912.66;;;17.03;81.02
40788;BME280;26497;52.494;7.546;2023-11-19T03:06:29;99909.38;;;16.97;80.71
40788;BME280;26497;52.494;7.546;2023-11-19T03:08:56;99911.13;;;16.98;80.07
40788;BME280;26497;52.494;7.546;2023-11-19T03:11:23;99902.69;;;16.85;80.86
40788;BME280;26497;52.494;7.546;2023-11-19T03:13:50;99908.94;;;16.84;80.29
40788;BME280;26497;52.494;7.546;2023-11-19T03:16:17;99915.72;;;16.69;81.16
40788;BME280;26497;52.494;7.546;2023-11-19T03:18:44;99903.50;;;16.87;80.40
40788;BME280;26497;52.494;7.546;2023-11-19T03:21:12;99907.06;;;16.86;80.97
40788;BME280;26497;52.494;7.546;2023-11-19T03:23:39;99907.28;;;16.81;81.40
40788;BME280;26497;52.494;7.546;2023-11-19T03:26:06;99905.81;;;16.72;82.03
40788;BME280;26497;52.494;7.546;2023-11-19T03:28:34;99911.78;;;16.79;82.18
40788;BME280;26497;52.494;7.546;2023-11-19T03:31:04;99908.06;;;16.83;82.21
40788;BME280;26497;52.494;7.546;2023-11-19T03:33:33;99907.31;;;16.79;82.36
40788;BME280;26497;52.494;7.546;2023-11-19T03:36:00;99906.22;;;17.09;81.13
40788;BME280;26497;52.494;7.546;2023-11-19T03:38:29;99901.06;;;17.27;80.20
40788;BME280;26497;52.494;7.546;2023-11-19T03:40:56;99893.38;;;17.41;78.78
40788;BME280;26497;52.494;7.546;2023-11-19T03:43:22;99887.09;;;17.21;79.63
40788;BME280;26497;52.494;7.546;2023-11-19T03:45:49;99893.03;;;17.06;80.18
40788;BME280;26497;52.494;7.546;2023-11-19T03:48:16;99892.22;;;17.04;80.72
40788;BME280;26497;52.494;7.546;2023-11-19T03:50:44;99891.78;;;17.15;80.39
40788;BME280;26497;52.494;7.546;2023-11-19T03:53:13;99885.44;;;16.71;82.80
40788;BME280;26497;52.494;7.546;2023-11-19T03:55:42;99885.16;;;16.79;82.40
40788;BME280;26497;52.494;7.546;2023-11-19T03:58:08;99884.25;;;17.04;81.52
40788;BME280;26497;52.494;7.546;2023-11-19T04:00:36;99886.22;;;17.21;80.56
40788;BME280;26497;52.494;7.546;2023-11-19T04:03:03;99890.06;;;17.14;80.45
40788;BME280;26497;52.494;7.546;2023-11-19T04:05:30;99886.16;;;17.22;80.36
40788;BME280;26497;52.494;7.546;2023-11-19T04:07:57;99892.59;;;16.93;81.03
40788;BME280;26497;52.494;7.546;2023-11-19T04:10:24;99884.03;;;16.85;81.81
40788;BME280;26497;52.494;7.546;2023-11-19T04:12:54;99893.97;;;16.81;81.94
40788;BME280;26497;52.494;7.546;2023-11-19T04:15:21;99889.09;;;16.92;81.34
40788;BME280;26497;52.494;7.546;2023-11-19T04:17:48;99881.03;;;16.70;81.79
40788;BME280;26497;52.494;7.546;2023-11-19T04:20:15;99880.00;;;16.74;81.61
40788;BME280;26497;52.494;7.546;2023-11-19T04:22:42;99884.25;;;16.56;81.95
40788;BME280;26497;52.494;7.546;2023-11-19T04:25:09;99884.50;;;16.72;80.88
40788;BME280;26497;52.494;7.546;2023-11-19T04:27:36;99874.44;;;16.80;79.48
40788;BME280;26497;52.494;7.546;2023-11-19T04:30:06;99885.34;;;16.50;81.82
40788;BME280;26497;52.494;7.546;2023-11-19T04:32:36;99884.78;;;16.42;82.29
40788;BME280;26497;52.494;7.546;2023-11-19T04:35:04;99879.91;;;16.54;81.62
40788;BME280;26497;52.494;7.546;2023-11-19T04:37:32;99882.97;;;16.43;82.09
40788;BME280;26497;52.494;7.546;2023-11-19T04:40:00;99886.72;;;16.61;81.65
40788;BME280;26497;52.494;7.546;2023-11-19T04:42:27;99881.28;;;16.64;80.49
40788;BME280;26497;52.494;7.546;2023-11-19T04:44:55;99884.69;;;16.44;81.90
40788;BME280;26497;52.494;7.546;2023-11-19T04:47:23;99886.16;;;16.53;80.63
40788;BME280;26497;52.494;7.546;2023-11-19T04:49:50;99891.09;;;16.62;80.23
40788;BME280;26497;52.494;7.546;2023-11-19T04:52:17;99894.00;;;16.32;82.31
40788;BME280;26497;52.494;7.546;2023-11-19T04:54:44;99884.34;;;16.53;81.05
40788;BME280;26497;52.494;7.546;2023-11-19T04:57:11;99885.03;;;16.34;81.43
40788;BME280;26497;52.494;7.546;2023-11-19T04:59:39;99885.66;;;16.65;80.19
40788;BME280;26497;52.494;7.546;2023-11-19T05:02:06;99895.00;;;16.53;80.10
40788;BME280;26497;52.494;7.546;2023-11-19T05:04:34;99893.97;;;16.57;79.99
40788;BME280;26497;52.494;7.546;2023-11-19T05:07:01;99890.41;;;16.57;78.96
40788;BME280;26497;52.494;7.546;2023-11-19T05:09:28;99889.13;;;16.67;78.28
40788;BME280;26497;52.494;7.546;2023-11-19T05:11:55;99891.53;;;16.51;78.93
40788;BME280;26497;52.494;7.546;2023-11-19T05:14:22;99889.69;;;16.53;78.78
40788;BME280;26497;52.494;7.546;2023-11-19T05:16:50;99898.56;;;16.28;80.27
40788;BME280;26497;52.494;7.546;2023-11-19T05:19:17;99901.56;;;16.44;79.95
40788;BME280;26497;52.494;7.546;2023-11-19T05:21:45;99897.06;;;16.45;79.14
40788;BME280;26497;52.494;7.546;2023-11-19T05:24:12;99903.03;;;16.28;79.35
40788;BME280;26497;52.494;7.546;2023-11-19T05:26:39;99898.59;;;16.03;80.62
40788;BME280;26497;52.494;7.546;2023-11-19T05:29:07;99905.41;;;16.10;80.57
40788;BME280;26497;52.494;7.546;2023-11-19T05:31:34;99901.03;;;16.09;80.62
40788;BME280;26497;52.494;7.546;2023-11-19T05:34:01;99909.59;;;16.17;80.37
40788;BME280;26497;52.494;7.546;2023-11-19T05:36:27;99911.88;;;16.28;79.25
40788;BME280;26497;52.494;7.546;2023-11-19T05:38:56;99897.88;;;16.47;78.53
40788;BME280;26497;52.494;7.546;2023-11-19T05:41:23;99897.00;;;16.70;77.55
40788;BME280;26497;52.494;7.546;2023-11-19T05:43:50;99895.84;;;16.77;76.45
40788;BME280;26497;52.494;7.546;2023-11-19T05:46:17;99897.84;;;16.48;77.68
40788;BME280;26497;52.494;7.546;2023-11-19T05:48:44;99891.72;;;16.46;78.13
40788;BME280;26497;52.494;7.546;2023-11-19T05:51:12;99908.16;;;16.32;78.57
40788;BME280;26497;52.494;7.546;2023-11-19T05:53:39;99912.75;;;16.29;78.94
40788;BME280;26497;52.494;7.546;2023-11-19T05:56:09;99910.56;;;16.40;77.67
40788;BME280;26497;52.494;7.546;2023-11-19T05:58:36;99921.53;;;16.31;77.53
40788;BME280;26497;52.494;7.546;2023-11-19T06:01:03;99925.72;;;16.38;77.60
40788;BME280;26497;52.494;7.546;2023-11-19T06:03:32;99920.00;;;16.49;76.69
40788;BME280;26497;52.494;7.546;2023-11-19T06:05:59;99922.03;;;16.42;77.03
40788;BME280;26497;52.494;7.546;2023-11-19T06:08:26;99920.75;;;16.53;76.42
40788;BME280;26497;52.494;7.546;2023-11-19T06:10:53;99922.72;;;16.47;75.42
40788;BME280;26497;52.494;7.546;2023-11-19T06:13:22;99916.81;;;16.14;76.92
40788;BME280;26497;52.494;7.546;2023-11-19T06:15:49;99913.66;;;16.28;76.47
40788;BME280;26497;52.494;7.546;2023-11-19T06:18:17;99911.34;;;16.18;76.25
40788;BME280;26497;52.494;7.546;2023-11-19T06:20:45;99917.41;;;15.97;77.07
40788;BME280;26497;52.494;7.546;2023-11-19T06:23:12;99923.28;;;16.32;75.90
40788;BME280;26497;52.494;7.546;2023-11-19T06:25:39;99924.75;;;16.15;75.96
40788;BME280;26497;52.494;7.546;2023-11-19T06:28:06;99916.91;;;16.11;76.19
40788;BME280;26497;52.494;7.546;2023-11-19T06:30:35;99918.28;;;16.23;75.39
40788;BME280;26497;52.494;7.546;2023-11-19T06:33:02;99916.69;;;16.42;74.35
40788;BME280;26497;52.494;7.546;2023-11-19T06:35:29;99925.91;;;16.57;73.49
40788;BME280;26497;52.494;7.546;2023-11-19T06:38:02;99927.34;;;16.66;72.94
40788;BME280;26497;52.494;7.546;2023-11-19T06:40:30;99925.94;;;16.32;73.37
40788;BME280;26497;52.494;7.546;2023-11-19T06:42:57;99923.31;;;16.30;73.70
40788;BME280;26497;52.494;7.546;2023-11-19T06:45:24;99931.59;;;16.23;73.48
40788;BME280;26497;52.494;7.546;2023-11-19T06:47:52;99926.19;;;16.24;73.00
40788;BME280;26497;52.494;7.546;2023-11-19T06:50:19;99929.78;;;16.23;73.11
40788;BME280;26497;52.494;7.546;2023-11-19T06:52:46;99927.81;;;16.28;72.53
40788;BME280;26497;52.494;7.546;2023-11-19T06:55:13;99927.91;;;16.27;72.24
40788;BME280;26497;52.494;7.546;2023-11-19T06:57:41;99929.91;;;16.45;71.73
40788;BME280;26497;52.494;7.546;2023-11-19T07:00:11;99934.50;;;16.40;71.26
40788;BME280;26497;52.494;7.546;2023-11-19T07:02:38;99932.22;;;16.55;70.67
40788;BME280;26497;52.494;7.546;2023-11-19T07:05:07;99940.56;;;16.44;71.04
40788;BME280;26497;52.494;7.546;2023-11-19T07:07:34;99937.28;;;16.61;70.30
40788;BME280;26497;52.494;7.546;2023-11-19T07:10:02;99932.88;;;16.60;69.65
40788;BME280;26497;52.494;7.546;2023-11-19T07:12:30;99942.50;;;16.40;70.80
40788;BME280;26497;52.494;7.546;2023-11-19T07:14:57;99939.13;;;16.35;70.33
40788;BME280;26497;52.494;7.546;2023-11-19T07:17:24;99944.56;;;16.32;70.25
40788;BME280;26497;52.494;7.546;2023-11-19T07:19:51;99945.97;;;16.42;69.56
40788;BME280;26497;52.494;7.546;2023-11-19T07:22:19;99953.13;;;16.40;70.02
40788;BME280;26497;52.494;7.546;2023-11-19T07:24:46;99952.41;;;16.10;70.34
40788;BME280;26497;52.494;7.546;2023-11-19T07:27:13;99962.47;;;16.27;70.73
40788;BME280;26497;52.494;7.546;2023-11-19T07:29:43;99959.59;;;16.33;69.99
40788;BME280;26497;52.494;7.546;2023-11-19T07:32:10;99959.91;;;16.49;69.50
40788;BME280;26497;52.494;7.546;2023-11-19T07:34:39;99964.84;;;16.34;69.96
40788;BME280;26497;52.494;7.546;2023-11-19T07:37:06;99958.56;;;16.37;69.42
40788;BME280;26497;52.494;7.546;2023-11-19T07:39:34;99969.19;;;16.12;70.27
40788;BME280;26497;52.494;7.546;2023-11-19T07:42:04;99975.88;;;16.24;70.06
40788;BME280;26497;52.494;7.546;2023-11-19T07:44:30;99976.16;;;16.41;69.29
40788;BME280;26497;52.494;7.546;2023-11-19T07:46:57;99974.84;;;16.53;68.40
40788;BME280;26497;52.494;7.546;2023-11-19T07:49:25;99971.63;;;16.18;69.80
40788;BME280;26497;52.494;7.546;2023-11-19T07:51:52;99978.59;;;16.22;69.89
40788;BME280;26497;52.494;7.546;2023-11-19T07:54:19;99981.13;;;16.25;69.70
40788;BME280;26497;52.494;7.546;2023-11-19T07:56:48;99984.25;;;16.38;68.69
40788;BME280;26497;52.494;7.546;2023-11-19T07:59:16;99979.38;;;16.26;69.29
40788;BME280;26497;52.494;7.546;2023-11-19T08:01:43;99984.84;;;16.46;68.89
40788;BME280;26497;52.494;7.546;2023-11-19T08:04:10;99994.47;;;16.50;68.34
40788;BME280;26497;52.494;7.546;2023-11-19T08:06:37;99993.66;;;16.48;67.72
40788;BME280;26497;52.494;7.546;2023-11-19T08:09:04;99993.88;;;16.42;68.28
40788;BME280;26497;52.494;7.546;2023-11-19T08:11:32;100006.38;;;16.64;67.43
40788;BME280;26497;52.494;7.546;2023-11-19T08:14:00;99990.69;;;16.56;67.66
40788;BME280;26497;52.494;7.546;2023-11-19T08:16:27;99998.28;;;16.43;67.08
40788;BME280;26497;52.494;7.546;2023-11-19T08:18:54;100003.00;;;16.35;67.56
40788;BME280;26497;52.494;7.546;2023-11-19T08:21:24;100007.03;;;16.71;66.78
40788;BME280;26497;52.494;7.546;2023-11-19T08:23:52;100001.88;;;16.91;66.04
40788;BME280;26497;52.494;7.546;2023-11-19T08:26:19;99999.66;;;16.79;66.14
40788;BME280;26497;52.494;7.546;2023-11-19T08:28:46;100014.75;;;16.78;65.96
40788;BME280;26497;52.494;7.546;2023-11-19T08:31:14;100013.34;;;16.68;66.06
40788;BME280;26497;52.494;7.546;2023-11-19T08:33:41;100016.38;;;16.83;65.87
40788;BME280;26497;52.494;7.546;2023-11-19T08:36:14;100014.59;;;16.83;65.50
40788;BME280;26497;52.494;7.546;2023-11-19T08:38:41;100017.69;;;16.71;65.73
40788;BME280;26497;52.494;7.546;2023-11-19T08:41:08;100012.41;;;16.69;66.28
40788;BME280;26497;52.494;7.546;2023-11-19T08:43:35;100011.88;;;16.59;66.21
40788;BME280;26497;52.494;7.546;2023-11-19T08:46:04;100016.72;;;16.99;65.52
40788;BME280;26497;52.494;7.546;2023-11-19T08:48:37;100012.84;;;16.82;64.74
40788;BME280;26497;52.494;7.546;2023-11-19T08:51:05;100022.97;;;16.96;65.28
40788;BME280;26497;52.494;7.546;2023-11-19T08:53:32;100009.66;;;16.96;64.46
40788;BME280;26497;52.494;7.546;2023-11-19T08:55:59;100011.50;;;16.94;64.83
40788;BME280;26497;52.494;7.546;2023-11-19T08:58:26;100010.97;;;17.09;64.20
40788;BME280;26497;52.494;7.546;2023-11-19T09:00:53;100013.94;;;17.02;64.67
40788;BME280;26497;52.494;7.546;2023-11-19T09:03:20;100016.09;;;16.90;63.99
40788;BME280;26497;52.494;7.546;2023-11-19T09:05:48;100018.50;;;16.73;65.78
40788;BME280;26497;52.494;7.546;2023-11-19T09:08:15;100019.25;;;16.76;66.29
40788;BME280;26497;52.494;7.546;2023-11-19T09:10:42;100017.94;;;16.39;67.75
40788;BME280;26497;52.494;7.546;2023-11-19T09:13:09;100011.44;;;16.72;67.96
40788;BME280;26497;52.494;7.546;2023-11-19T09:15:36;100015.06;;;16.69;67.45
40788;BME280;26497;52.494;7.546;2023-11-19T09:18:04;100011.34;;;16.49;68.08
40788;BME280;26497;52.494;7.546;2023-11-19T09:20:31;100016.56;;;16.78;67.08
40788;BME280;26497;52.494;7.546;2023-11-19T09:23:05;100020.44;;;16.93;65.99
40788;BME280;26497;52.494;7.546;2023-11-19T09:25:32;100011.44;;;16.97;65.46
40788;BME280;26497;52.494;7.546;2023-11-19T09:27:59;100019.31;;;17.00;66.87
40788;BME280;26497;52.494;7.546;2023-11-19T09:30:26;100017.78;;;17.41;65.69
40788;BME280;26497;52.494;7.546;2023-11-19T09:32:53;100013.72;;;17.54;64.28
40788;BME280;26497;52.494;7.546;2023-11-19T09:35:20;100009.19;;;18.01;63.03
40788;BME280;26497;52.494;7.546;2023-11-19T09:37:47;100007.81;;;18.12;62.13
40788;BME280;26497;52.494;7.546;2023-11-19T09:40:16;100011.06;;;18.19;59.75
40788;BME280;26497;52.494;7.546;2023-11-19T09:42:45;100014.28;;;18.48;59.48
40788;BME280;26497;52.494;7.546;2023-11-19T09:45:14;100008.34;;;18.62;58.03
40788;BME280;26497;52.494;7.546;2023-11-19T09:47:45;100015.63;;;18.59;57.99
40788;BME280;26497;52.494;7.546;2023-11-19T09:50:17;100013.72;;;18.41;58.29
40788;BME280;26497;52.494;7.546;2023-11-19T09:52:45;100025.16;;;18.23;58.70
40788;BME280;26497;52.494;7.546;2023-11-19T09:55:12;100013.47;;;18.05;59.52
40788;BME280;26497;52.494;7.546;2023-11-19T09:57:41;100024.59;;;17.92;60.08
40788;BME280;26497;52.494;7.546;2023-11-19T10:00:11;100019.22;;;18.16;59.76
40788;BME280;26497;52.494;7.546;2023-11-19T10:02:40;100027.69;;;18.05;60.16
40788;BME280;26497;52.494;7.546;2023-11-19T10:05:09;100027.56;;;17.86;60.40
40788;BME280;26497;52.494;7.546;2023-11-19T10:07:38;100026.44;;;17.69;61.24
40788;BME280;26497;52.494;7.546;2023-11-19T10:10:07;100035.03;;;17.76;61.48
40788;BME280;26497;52.494;7.546;2023-11-19T10:12:34;100025.72;;;17.42;62.29
40788;BME280;26497;52.494;7.546;2023-11-19T10:15:03;100026.47;;;17.46;61.85
40788;BME280;26497;52.494;7.546;2023-11-19T10:17:33;100029.03;;;17.49;61.99
40788;BME280;26497;52.494;7.546;2023-11-19T10:20:01;100029.59;;;17.57;62.11
40788;BME280;26497;52.494;7.546;2023-11-19T10:22:28;100020.66;;;17.12;62.82
40788;BME280;26497;52.494;7.546;2023-11-19T10:24:55;100018.63;;;17.19;63.35
40788;BME280;26497;52.494;7.546;2023-11-19T10:27:24;100021.00;;;17.03;63.77
40788;BME280;26497;52.494;7.546;2023-11-19T10:29:52;100014.06;;;17.22;63.59
40788;BME280;26497;52.494;7.546;2023-11-19T10:32:20;100017.69;;;17.20;63.96
40788;BME280;26497;52.494;7.546;2023-11-19T10:34:47;100020.06;;;16.78;65.83
40788;BME280;26497;52.494;7.546;2023-11-19T10:37:27;100026.66;;;16.68;66.97
40788;BME280;26497;52.494;7.546;2023-11-19T10:39:57;100024.28;;;16.60;67.75
40788;BME280;26497;52.494;7.546;2023-11-19T10:42:24;100022.81;;;16.77;67.52
40788;BME280;26497;52.494;7.546;2023-11-19T10:44:51;100026.06;;;16.60;67.90
40788;BME280;26497;52.494;7.546;2023-11-19T10:47:20;100023.56;;;16.30;68.67
40788;BME280;26497;52.494;7.546;2023-11-19T10:49:49;100025.09;;;16.10;70.36
40788;BME280;26497;52.494;7.546;2023-11-19T10:52:18;100031.19;;;16.14;70.89
40788;BME280;26497;52.494;7.546;2023-11-19T10:54:50;100031.78;;;15.95;72.01
40788;BME280;26497;52.494;7.546;2023-11-19T10:57:21;100031.25;;;15.84;72.83
40788;BME280;26497;52.494;7.546;2023-11-19T10:59:49;100030.03;;;15.94;72.63
40788;BME280;26497;52.494;7.546;2023-11-19T11:02:23;100015.84;;;15.95;72.81
40788;BME280;26497;52.494;7.546;2023-11-19T11:04:52;100018.81;;;16.13;72.65
40788;BME280;26497;52.494;7.546;2023-11-19T11:07:21;100018.50;;;16.22;72.06
40788;BME280;26497;52.494;7.546;2023-11-19T11:09:52;100014.19;;;15.91;73.58
40788;BME280;26497;52.494;7.546;2023-11-19T11:12:22;100006.75;;;15.74;74.64
40788;BME280;26497;52.494;7.546;2023-11-19T11:14:51;100010.94;;;16.10;73.49
40788;BME280;26497;52.494;7.546;2023-11-19T11:17:24;100013.03;;;16.27;73.12
40788;BME280;26497;52.494;7.546;2023-11-19T11:19:54;100005.53;;;16.38;73.10
40788;BME280;26497;52.494;7.546;2023-11-19T11:22:22;100000.59;;;16.53;72.77
40788;BME280;26497;52.494;7.546;2023-11-19T11:25:15;99997.88;;;16.54;73.30
40788;BME280;26497;52.494;7.546;2023-11-19T11:28:05;99992.16;;;16.65;73.35
40788;BME280;26497;52.494;7.546;2023-11-19T11:30:51;99990.69;;;16.56;72.69
40788;BME280;26497;52.494;7.546;2023-11-19T11:33:35;99982.19;;;16.46;72.97
40788;BME280;26497;52.494;7.546;2023-11-19T11:36:16;99975.13;;;16.45;73.34
40788;BME280;26497;52.494;7.546;2023-11-19T11:38:48;99985.06;;;16.40;73.10
40788;BME280;26497;52.494;7.546;2023-11-19T11:41:18;99977.63;;;16.25;73.39
40788;BME280;26497;52.494;7.546;2023-11-19T11:43:49;99982.81;;;16.53;72.60
40788;BME280;26497;52.494;7.546;2023-11-19T11:46:53;99985.47;;;16.02;73.04
40788;BME280;26497;52.494;7.546;2023-11-19T11:49:29;99982.13;;;16.23;72.44
40788;BME280;26497;52.494;7.546;2023-11-19T11:52:04;99984.47;;;16.32;72.12
40788;BME280;26497;52.494;7.546;2023-11-19T11:54:31;99979.25;;;16.29;71.24
40788;BME280;26497;52.494;7.546;2023-11-19T11:57:03;99973.75;;;16.33;71.91
40788;BME280;26497;52.494;7.546;2023-11-19T11:59:36;99979.06;;;16.59;70.63
40788;BME280;26497;52.494;7.546;2023-11-19T12:02:04;99973.19;;;17.00;69.74
40788;BME280;26497;52.494;7.546;2023-11-19T12:04:36;99966.19;;;16.95;68.30
40788;BME280;26497;52.494;7.546;2023-11-19T12:07:04;99968.66;;;17.02;67.63
40788;BME280;26497;52.494;7.546;2023-11-19T12:09:32;99962.06;;;17.12;68.33
40788;BME280;26497;52.494;7.546;2023-11-19T12:12:21;99957.81;;;17.29;67.39
40788;BME280;26497;52.494;7.546;2023-11-19T12:15:06;99959.19;;;17.39;65.86
40788;BME280;26497;52.494;7.546;2023-11-19T12:17:49;99958.94;;;17.01;67.02
40788;BME280;26497;52.494;7.546;2023-11-19T12:20:20;99957.22;;;17.22;67.14
40788;BME280;26497;52.494;7.546;2023-11-19T12:22:48;99950.66;;;17.31;67.34
40788;BME280;26497;52.494;7.546;2023-11-19T12:25:17;99952.94;;;17.18;66.99
40788;BME280;26497;52.494;7.546;2023-11-19T12:27:46;99953.50;;;16.78;68.13
40788;BME280;26497;52.494;7.546;2023-11-19T12:30:17;99944.47;;;16.83;68.97
40788;BME280;26497;52.494;7.546;2023-11-19T12:32:45;99951.06;;;16.98;71.40
40788;BME280;26497;52.494;7.546;2023-11-19T12:35:13;99957.28;;;17.43;70.17
40788;BME280;26497;52.494;7.546;2023-11-19T12:37:42;99959.97;;;17.43;68.77
40788;BME280;26497;52.494;7.546;2023-11-19T12:40:15;99942.03;;;17.02;69.21
40788;BME280;26497;52.494;7.546;2023-11-19T12:42:43;99935.91;;;16.74;68.53
40788;BME280;26497;52.494;7.546;2023-11-19T12:45:10;99955.28;;;16.54;70.12
40788;BME280;26497;52.494;7.546;2023-11-19T12:47:39;99934.25;;;16.72;69.96
40788;BME280;26497;52.494;7.546;2023-11-19T12:50:07;99951.38;;;16.64;69.38
40788;BME280;26497;52.494;7.546;2023-11-19T12:52:35;99950.91;;;16.77;68.97
40788;BME280;26497;52.494;7.546;2023-11-19T12:55:04;99966.53;;;16.86;68.50
40788;BME280;26497;52.494;7.546;2023-11-19T12:57:39;99971.78;;;16.64;68.92
40788;BME280;26497;52.494;7.546;2023-11-19T13:00:17;99963.97;;;16.59;70.02
40788;BME280;26497;52.494;7.546;2023-11-19T13:02:46;99967.38;;;16.39;70.68
40788;BME280;26497;52.494;7.546;2023-11-19T13:05:28;99976.09;;;16.17;72.58
40788;BME280;26497;52.494;7.546;2023-11-19T13:08:01;99972.56;;;16.17;73.01